sensor_id;sensor_type;location;lat;lon;timestamp;temperature;humidity
7502;DHT22;3792;47.740;7.606;2023-11-19T00:00:19;10.20;99.90
7502;DHT22;3792;47.740;7.606;2023-11-19T00:02:46;10.30;99.90
7502;DHT22;3792;47.740;7.606;2023-11-19T00:05:13;10.40;99.90
7502;DHT22;3792;47.740;7.606;2023-11-19T00:07:40;10.70;99.90
7502;DHT22;3792;47.740;7.606;2023-11-19T00:10:08;11.00;99.90
7502;DHT22;3792;47.740;7.606;2023-11-19T00:12:37;11.20;99.90
7502;DHT22;3792;47.740;7.606;2023-11-19T00:15:06;11.40;99.90
7502;DHT22;3792;47.740;7.606;2023-11-19T00:17:37;11.60;99.90
7502;DHT22;3792;47.740;7.606;2023-11-19T00:20:07;11.70;99.90
7502;DHT22;3792;47.740;7.606;2023-11-19T00:22:34;11.70;99.90
7502;DHT22;3792;47.740;7.606;2023-11-19T00:25:01;11.80;99.90
7502;DHT22;3792;47.740;7.606;2023-11-19T00:27:29;11.80;99.90
7502;DHT22;3792;47.740;7.606;2023-11-19T00:29:56;11.80;99.90
7502;DHT22;3792;47.740;7.606;2023-11-19T00:32:25;11.80;99.90
7502;DHT22;3792;47.740;7.606;2023-11-19T00:34:52;11.80;99.90
7502;DHT22;3792;47.740;7.606;2023-11-19T00:37:19;11.80;99.90
7502;DHT22;3792;47.740;7.606;2023-11-19T00:39:46;11.90;99.90
7502;DHT22;3792;47.740;7.606;2023-11-19T00:42:13;12.00;99.90
7502;DHT22;3792;47.740;7.606;2023-11-19T00:44:40;11.90;99.90
7502;DHT22;3792;47.740;7.606;2023-11-19T00:47:07;11.90;99.90
7502;DHT22;3792;47.740;7.606;2023-11-19T00:49:36;11.80;99.90
7502;DHT22;3792;47.740;7.606;2023-11-19T00:52:03;11.80;99.90
7502;DHT22;3792;47.740;7.606;2023-11-19T00:54:32;11.70;99.90
7502;DHT22;3792;47.740;7.606;2023-11-19T00:56:59;11.70;99.90
7502;DHT22;3792;47.740;7.606;2023-11-19T00:59:27;11.80;99.90
7502;DHT22;3792;47.740;7.606;2023-11-19T01:01:56;11.80;99.90
7502;DHT22;3792;47.740;7.606;2023-11-19T01:04:24;11.80;99.90
7502;DHT22;3792;47.740;7.606;2023-11-19T01:06:53;11.70;99.90
7502;DHT22;3792;47.740;7.606;2023-11-19T01:09:20;11.70;99.90
7502;DHT22;3792;47.740;7.606;2023-11-19T01:11:47;11.70;99.90
7502;DHT22;3792;47.740;7.606;2023-11-19T01:14:14;11.70;99.90
7502;DHT22;3792;47.740;7.606;2023-11-19T01:16:41;11.70;99.90
7502;DHT22;3792;47.740;7.606;2023-11-19T01:19:08;11.80;99.90
7502;DHT22;3792;47.740;7.606;2023-11-19T01:21:36;11.80;99.90
7502;DHT22;3792;47.740;7.606;2023-11-19T01:24:06;11.80;99.90
7502;DHT22;3792;47.740;7.606;2023-11-19T01:26:35;11.80;99.90
7502;DHT22;3792;47.740;7.606;2023-11-19T01:29:02;11.70;99.90
7502;DHT22;3792;47.740;7.606;2023-11-19T01:31:30;11.70;99.90
7502;DHT22;3792;47.740;7.606;2023-11-19T01:33:57;11.80;99.90
7502;DHT22;3792;47.740;7.606;2023-11-19T01:36:24;11.80;99.90
7502;DHT22;3792;47.740;7.606;2023-11-19T01:38:51;11.80;99.90
7502;DHT22;3792;47.740;7.606;2023-11-19T01:41:19;11.90;99.90
7502;DHT22;3792;47.740;7.606;2023-11-19T01:43:47;11.90;99.90
7502;DHT22;3792;47.740;7.606;2023-11-19T01:46:14;11.90;99.90
7502;DHT22;3792;47.740;7.606;2023-11-19T01:48:43;11.90;99.90
7502;DHT22;3792;47.740;7.606;2023-11-19T01:51:11;11.90;99.90
7502;DHT22;3792;47.740;7.606;2023-11-19T01:53:43;11.80;99.90
7502;DHT22;3792;47.740;7.606;2023-11-19T01:56:13;11.80;99.90
7502;DHT22;3792;47.740;7.606;2023-11-19T01:58:44;11.90;99.90
7502;DHT22;3792;47.740;7.606;2023-11-19T02:01:13;12.10;99.90
7502;DHT22;3792;47.740;7.606;2023-11-19T02:03:41;12.10;99.90
7502;DHT22;3792;47.740;7.606;2023-11-19T02:06:09;12.10;99.90
7502;DHT22;3792;47.740;7.606;2023-11-19T02:08:36;12.10;99.90
7502;DHT22;3792;47.740;7.606;2023-11-19T02:11:05;12.10;99.90
7502;DHT22;3792;47.740;7.606;2023-11-19T02:13:33;12.00;99.90
7502;DHT22;3792;47.740;7.606;2023-11-19T02:16:03;12.00;99.90
7502;DHT22;3792;47.740;7.606;2023-11-19T02:18:30;11.90;99.90
7502;DHT22;3792;47.740;7.606;2023-11-19T02:20:58;11.90;99.90
7502;DHT22;3792;47.740;7.606;2023-11-19T02:23:27;11.80;99.90
7502;DHT22;3792;47.740;7.606;2023-11-19T02:26:12;11.70;99.90
7502;DHT22;3792;47.740;7.606;2023-11-19T02:28:42;11.70;99.90
7502;DHT22;3792;47.740;7.606;2023-11-19T02:31:09;11.60;99.90
7502;DHT22;3792;47.740;7.606;2023-11-19T02:33:37;11.60;99.90
7502;DHT22;3792;47.740;7.606;2023-11-19T02:36:04;11.60;99.90
7502;DHT22;3792;47.740;7.606;2023-11-19T02:38:32;11.60;99.90
7502;DHT22;3792;47.740;7.606;2023-11-19T02:41:02;11.50;99.90
7502;DHT22;3792;47.740;7.606;2023-11-19T02:43:30;11.40;99.90
7502;DHT22;3792;47.740;7.606;2023-11-19T02:46:01;11.30;99.90
7502;DHT22;3792;47.740;7.606;2023-11-19T02:48:28;11.30;99.90
7502;DHT22;3792;47.740;7.606;2023-11-19T02:50:56;11.20;99.90
7502;DHT22;3792;47.740;7.606;2023-11-19T02:53:24;11.20;99.90
7502;DHT22;3792;47.740;7.606;2023-11-19T02:55:53;11.20;99.90
7502;DHT22;3792;47.740;7.606;2023-11-19T02:58:26;11.20;99.90
7502;DHT22;3792;47.740;7.606;2023-11-19T03:00:54;11.10;99.90
7502;DHT22;3792;47.740;7.606;2023-11-19T03:03:27;11.10;99.90
7502;DHT22;3792;47.740;7.606;2023-11-19T03:06:04;11.10;99.90
7502;DHT22;3792;47.740;7.606;2023-11-19T03:08:31;11.10;99.90
7502;DHT22;3792;47.740;7.606;2023-11-19T03:10:59;11.00;99.90
7502;DHT22;3792;47.740;7.606;2023-11-19T03:13:26;11.00;99.90
7502;DHT22;3792;47.740;7.606;2023-11-19T03:15:53;11.00;99.90
7502;DHT22;3792;47.740;7.606;2023-11-19T03:18:20;11.00;99.90
7502;DHT22;3792;47.740;7.606;2023-11-19T03:20:49;11.00;99.90
7502;DHT22;3792;47.740;7.606;2023-11-19T03:23:17;11.00;99.90
7502;DHT22;3792;47.740;7.606;2023-11-19T03:25:44;11.00;99.90
7502;DHT22;3792;47.740;7.606;2023-11-19T03:28:11;11.00;99.90
7502;DHT22;3792;47.740;7.606;2023-11-19T03:30:39;11.00;99.90
7502;DHT22;3792;47.740;7.606;2023-11-19T03:33:06;11.00;99.90
7502;DHT22;3792;47.740;7.606;2023-11-19T03:35:33;11.00;99.90
7502;DHT22;3792;47.740;7.606;2023-11-19T03:38:01;11.00;99.90
7502;DHT22;3792;47.740;7.606;2023-11-19T03:40:29;10.90;99.90
7502;DHT22;3792;47.740;7.606;2023-11-19T03:42:56;10.90;99.90
7502;DHT22;3792;47.740;7.606;2023-11-19T03:45:24;10.90;99.90
7502;DHT22;3792;47.740;7.606;2023-11-19T03:47:51;10.90;99.90
7502;DHT22;3792;47.740;7.606;2023-11-19T03:50:18;10.90;99.90
7502;DHT22;3792;47.740;7.606;2023-11-19T03:52:46;11.00;99.90
7502;DHT22;3792;47.740;7.606;2023-11-19T03:55:15;11.00;99.90
7502;DHT22;3792;47.740;7.606;2023-11-19T03:57:42;11.00;99.90
7502;DHT22;3792;47.740;7.606;2023-11-19T04:00:10;10.90;99.90
7502;DHT22;3792;47.740;7.606;2023-11-19T04:02:39;11.00;99.90
7502;DHT22;3792;47.740;7.606;2023-11-19T04:05:07;10.90;99.90
7502;DHT22;3792;47.740;7.606;2023-11-19T04:07:35;11.00;99.90
7502;DHT22;3792;47.740;7.606;2023-11-19T04:10:03;10.90;99.90
7502;DHT22;3792;47.740;7.606;2023-11-19T04:12:31;10.90;99.90
7502;DHT22;3792;47.740;7.606;2023-11-19T04:14:58;10.90;99.90
7502;DHT22;3792;47.740;7.606;2023-11-19T04:17:25;11.00;99.90
7502;DHT22;3792;47.740;7.606;2023-11-19T04:19:53;11.00;99.90
7502;DHT22;3792;47.740;7.606;2023-11-19T04:22:20;11.00;99.90
7502;DHT22;3792;47.740;7.606;2023-11-19T04:24:47;11.00;99.90
7502;DHT22;3792;47.740;7.606;2023-11-19T04:27:14;11.00;99.90
7502;DHT22;3792;47.740;7.606;2023-11-19T04:29:42;10.90;99.90
7502;DHT22;3792;47.740;7.606;2023-11-19T04:32:11;11.00;99.90
7502;DHT22;3792;47.740;7.606;2023-11-19T04:34:38;11.00;99.90
7502;DHT22;3792;47.740;7.606;2023-11-19T04:37:06;11.00;99.90
7502;DHT22;3792;47.740;7.606;2023-11-19T04:39:33;11.00;99.90
7502;DHT22;3792;47.740;7.606;2023-11-19T04:42:00;11.10;99.90
7502;DHT22;3792;47.740;7.606;2023-11-19T04:44:27;11.10;99.90
7502;DHT22;3792;47.740;7.606;2023-11-19T04:46:56;11.20;99.90
7502;DHT22;3792;47.740;7.606;2023-11-19T04:49:24;11.20;99.90
7502;DHT22;3792;47.740;7.606;2023-11-19T04:51:52;11.20;99.90
7502;DHT22;3792;47.740;7.606;2023-11-19T04:54:19;11.20;99.90
7502;DHT22;3792;47.740;7.606;2023-11-19T04:56:46;11.20;99.90
7502;DHT22;3792;47.740;7.606;2023-11-19T04:59:14;11.30;99.90
7502;DHT22;3792;47.740;7.606;2023-11-19T05:01:41;11.30;99.90
7502;DHT22;3792;47.740;7.606;2023-11-19T05:04:10;11.30;99.90
7502;DHT22;3792;47.740;7.606;2023-11-19T05:06:37;11.30;99.90
7502;DHT22;3792;47.740;7.606;2023-11-19T05:09:04;11.30;99.90
7502;DHT22;3792;47.740;7.606;2023-11-19T05:11:33;11.40;99.90
7502;DHT22;3792;47.740;7.606;2023-11-19T05:14:02;11.40;99.90
7502;DHT22;3792;47.740;7.606;2023-11-19T05:16:30;11.40;99.90
7502;DHT22;3792;47.740;7.606;2023-11-19T05:18:58;11.40;99.90
7502;DHT22;3792;47.740;7.606;2023-11-19T05:21:26;11.30;99.90
7502;DHT22;3792;47.740;7.606;2023-11-19T05:23:53;11.30;99.90
7502;DHT22;3792;47.740;7.606;2023-11-19T05:26:23;11.40;99.90
7502;DHT22;3792;47.740;7.606;2023-11-19T05:28:51;11.40;99.90
7502;DHT22;3792;47.740;7.606;2023-11-19T05:31:18;11.40;99.90
7502;DHT22;3792;47.740;7.606;2023-11-19T05:33:45;11.40;99.90
7502;DHT22;3792;47.740;7.606;2023-11-19T05:36:13;11.50;99.90
7502;DHT22;3792;47.740;7.606;2023-11-19T05:38:42;11.50;99.90
7502;DHT22;3792;47.740;7.606;2023-11-19T05:41:10;11.50;99.90
7502;DHT22;3792;47.740;7.606;2023-11-19T05:43:37;11.50;99.90
7502;DHT22;3792;47.740;7.606;2023-11-19T05:46:06;11.50;99.90
7502;DHT22;3792;47.740;7.606;2023-11-19T05:48:33;11.50;99.90
7502;DHT22;3792;47.740;7.606;2023-11-19T05:51:00;11.50;99.90
7502;DHT22;3792;47.740;7.606;2023-11-19T05:53:27;11.50;99.90
7502;DHT22;3792;47.740;7.606;2023-11-19T05:55:56;11.50;99.90
7502;DHT22;3792;47.740;7.606;2023-11-19T05:58:24;11.60;99.90
7502;DHT22;3792;47.740;7.606;2023-11-19T06:00:54;11.70;99.90
7502;DHT22;3792;47.740;7.606;2023-11-19T06:03:21;11.70;99.90
7502;DHT22;3792;47.740;7.606;2023-11-19T06:05:48;11.70;99.90
7502;DHT22;3792;47.740;7.606;2023-11-19T06:08:15;11.70;99.90
7502;DHT22;3792;47.740;7.606;2023-11-19T06:10:43;11.80;99.90
7502;DHT22;3792;47.740;7.606;2023-11-19T06:13:13;11.70;99.90
7502;DHT22;3792;47.740;7.606;2023-11-19T06:15:41;11.70;99.90
7502;DHT22;3792;47.740;7.606;2023-11-19T06:18:08;11.70;99.90
7502;DHT22;3792;47.740;7.606;2023-11-19T06:20:35;11.70;99.90
7502;DHT22;3792;47.740;7.606;2023-11-19T06:23:02;11.70;99.90
7502;DHT22;3792;47.740;7.606;2023-11-19T06:25:29;11.70;99.90
7502;DHT22;3792;47.740;7.606;2023-11-19T06:27:57;11.70;99.90
7502;DHT22;3792;47.740;7.606;2023-11-19T06:30:25;11.80;99.90
7502;DHT22;3792;47.740;7.606;2023-11-19T06:32:54;11.90;99.90
7502;DHT22;3792;47.740;7.606;2023-11-19T06:35:21;11.90;99.90
7502;DHT22;3792;47.740;7.606;2023-11-19T06:37:48;11.90;99.90
7502;DHT22;3792;47.740;7.606;2023-11-19T06:40:15;11.90;99.90
7502;DHT22;3792;47.740;7.606;2023-11-19T06:42:42;11.90;99.90
7502;DHT22;3792;47.740;7.606;2023-11-19T06:45:09;11.90;99.90
7502;DHT22;3792;47.740;7.606;2023-11-19T06:47:38;11.90;99.90
7502;DHT22;3792;47.740;7.606;2023-11-19T06:50:06;12.00;99.90
7502;DHT22;3792;47.740;7.606;2023-11-19T06:52:35;11.90;99.90
7502;DHT22;3792;47.740;7.606;2023-11-19T06:55:03;12.00;99.90
7502;DHT22;3792;47.740;7.606;2023-11-19T06:57:30;12.00;99.90
7502;DHT22;3792;47.740;7.606;2023-11-19T06:59:58;12.00;99.90
7502;DHT22;3792;47.740;7.606;2023-11-19T07:02:25;12.00;99.90
7502;DHT22;3792;47.740;7.606;2023-11-19T07:04:53;12.00;99.90
7502;DHT22;3792;47.740;7.606;2023-11-19T07:07:21;11.90;99.90
7502;DHT22;3792;47.740;7.606;2023-11-19T07:09:48;12.00;99.90
7502;DHT22;3792;47.740;7.606;2023-11-19T07:12:15;12.00;99.90
7502;DHT22;3792;47.740;7.606;2023-11-19T07:14:42;12.00;99.90
7502;DHT22;3792;47.740;7.606;2023-11-19T07:17:09;12.00;99.90
7502;DHT22;3792;47.740;7.606;2023-11-19T07:19:36;12.00;99.90
7502;DHT22;3792;47.740;7.606;2023-11-19T07:22:05;12.00;99.90
7502;DHT22;3792;47.740;7.606;2023-11-19T07:24:33;12.00;99.90
7502;DHT22;3792;47.740;7.606;2023-11-19T07:27:00;12.00;99.90
7502;DHT22;3792;47.740;7.606;2023-11-19T07:29:26;12.00;99.90
7502;DHT22;3792;47.740;7.606;2023-11-19T07:31:53;12.00;99.90
7502;DHT22;3792;47.740;7.606;2023-11-19T07:34:22;12.00;99.90
7502;DHT22;3792;47.740;7.606;2023-11-19T07:36:49;12.00;99.90
7502;DHT22;3792;47.740;7.606;2023-11-19T07:39:18;12.00;99.90
7502;DHT22;3792;47.740;7.606;2023-11-19T07:41:46;12.00;99.90
7502;DHT22;3792;47.740;7.606;2023-11-19T07:44:14;12.10;99.90
7502;DHT22;3792;47.740;7.606;2023-11-19T07:46:41;12.00;99.90
7502;DHT22;3792;47.740;7.606;2023-11-19T07:49:23;12.10;99.90
7502;DHT22;3792;47.740;7.606;2023-11-19T07:51:50;12.10;99.90
7502;DHT22;3792;47.740;7.606;2023-11-19T07:54:20;12.20;99.90
7502;DHT22;3792;47.740;7.606;2023-11-19T07:56:48;12.20;99.90
7502;DHT22;3792;47.740;7.606;2023-11-19T07:59:16;12.20;99.90
7502;DHT22;3792;47.740;7.606;2023-11-19T08:01:44;12.20;99.90
7502;DHT22;3792;47.740;7.606;2023-11-19T08:04:15;12.20;99.90
7502;DHT22;3792;47.740;7.606;2023-11-19T08:06:42;12.30;99.90
7502;DHT22;3792;47.740;7.606;2023-11-19T08:09:09;12.30;99.90
7502;DHT22;3792;47.740;7.606;2023-11-19T08:11:41;12.30;99.90
7502;DHT22;3792;47.740;7.606;2023-11-19T08:14:09;12.30;99.90
7502;DHT22;3792;47.740;7.606;2023-11-19T08:16:39;12.30;99.90
7502;DHT22;3792;47.740;7.606;2023-11-19T08:19:07;12.30;99.90
7502;DHT22;3792;47.740;7.606;2023-11-19T08:21:35;12.30;99.90
7502;DHT22;3792;47.740;7.606;2023-11-19T08:24:03;12.40;99.90
7502;DHT22;3792;47.740;7.606;2023-11-19T08:26:30;12.40;99.90
7502;DHT22;3792;47.740;7.606;2023-11-19T08:28:59;12.30;99.90
7502;DHT22;3792;47.740;7.606;2023-11-19T08:31:26;12.40;99.90
7502;DHT22;3792;47.740;7.606;2023-11-19T08:33:54;12.40;99.90
7502;DHT22;3792;47.740;7.606;2023-11-19T08:36:21;12.40;99.90
7502;DHT22;3792;47.740;7.606;2023-11-19T08:38:48;12.40;99.90
7502;DHT22;3792;47.740;7.606;2023-11-19T08:41:17;12.40;99.90
7502;DHT22;3792;47.740;7.606;2023-11-19T08:44:00;12.40;99.90
7502;DHT22;3792;47.740;7.606;2023-11-19T08:46:30;12.40;99.90
7502;DHT22;3792;47.740;7.606;2023-11-19T08:48:57;12.40;99.90
7502;DHT22;3792;47.740;7.606;2023-11-19T08:51:25;12.40;99.90
7502;DHT22;3792;47.740;7.606;2023-11-19T08:53:54;12.40;99.90
7502;DHT22;3792;47.740;7.606;2023-11-19T08:56:22;12.50;99.90
7502;DHT22;3792;47.740;7.606;2023-11-19T08:58:49;12.60;99.90
7502;DHT22;3792;47.740;7.606;2023-11-19T09:01:18;12.60;99.90
7502;DHT22;3792;47.740;7.606;2023-11-19T09:03:45;12.60;99.90
7502;DHT22;3792;47.740;7.606;2023-11-19T09:06:12;12.60;99.90
7502;DHT22;3792;47.740;7.606;2023-11-19T09:08:39;12.70;99.90
7502;DHT22;3792;47.740;7.606;2023-11-19T09:11:11;12.70;99.90
7502;DHT22;3792;47.740;7.606;2023-11-19T09:13:39;12.70;99.90
7502;DHT22;3792;47.740;7.606;2023-11-19T09:16:07;12.70;99.90
7502;DHT22;3792;47.740;7.606;2023-11-19T09:18:36;12.70;99.90
7502;DHT22;3792;47.740;7.606;2023-11-19T09:21:04;12.70;99.90
7502;DHT22;3792;47.740;7.606;2023-11-19T09:23:31;12.80;99.90
7502;DHT22;3792;47.740;7.606;2023-11-19T09:26:05;12.80;99.90
7502;DHT22;3792;47.740;7.606;2023-11-19T09:28:32;12.90;99.90
7502;DHT22;3792;47.740;7.606;2023-11-19T09:30:59;12.90;99.90
7502;DHT22;3792;47.740;7.606;2023-11-19T09:33:30;12.90;99.90
7502;DHT22;3792;47.740;7.606;2023-11-19T09:35:59;12.90;99.90
7502;DHT22;3792;47.740;7.606;2023-11-19T09:38:27;12.90;99.90
7502;DHT22;3792;47.740;7.606;2023-11-19T09:40:54;12.90;99.90
7502;DHT22;3792;47.740;7.606;2023-11-19T09:43:23;12.90;99.90
7502;DHT22;3792;47.740;7.606;2023-11-19T09:45:51;12.90;99.90
7502;DHT22;3792;47.740;7.606;2023-11-19T09:48:19;12.90;99.90
7502;DHT22;3792;47.740;7.606;2023-11-19T09:50:47;13.00;99.90
7502;DHT22;3792;47.740;7.606;2023-11-19T09:53:16;13.00;99.90
7502;DHT22;3792;47.740;7.606;2023-11-19T09:55:43;13.00;99.90
7502;DHT22;3792;47.740;7.606;2023-11-19T09:58:12;13.00;99.90
7502;DHT22;3792;47.740;7.606;2023-11-19T10:00:40;13.10;99.90
7502;DHT22;3792;47.740;7.606;2023-11-19T10:03:11;13.30;99.90
7502;DHT22;3792;47.740;7.606;2023-11-19T10:05:39;13.50;99.90
7502;DHT22;3792;47.740;7.606;2023-11-19T10:08:07;13.60;99.90
7502;DHT22;3792;47.740;7.606;2023-11-19T10:10:37;13.70;99.90
7502;DHT22;3792;47.740;7.606;2023-11-19T10:13:05;13.80;99.90
7502;DHT22;3792;47.740;7.606;2023-11-19T10:15:36;13.90;99.90
7502;DHT22;3792;47.740;7.606;2023-11-19T10:18:04;13.90;99.90
7502;DHT22;3792;47.740;7.606;2023-11-19T10:20:35;14.00;99.90
7502;DHT22;3792;47.740;7.606;2023-11-19T10:23:02;13.90;99.90
7502;DHT22;3792;47.740;7.606;2023-11-19T10:25:30;14.00;99.90
7502;DHT22;3792;47.740;7.606;2023-11-19T10:27:59;14.00;99.90
7502;DHT22;3792;47.740;7.606;2023-11-19T10:30:27;14.10;99.90
7502;DHT22;3792;47.740;7.606;2023-11-19T10:33:06;14.10;99.90
7502;DHT22;3792;47.740;7.606;2023-11-19T10:35:34;14.10;99.90
7502;DHT22;3792;47.740;7.606;2023-11-19T10:38:03;14.00;99.90
7502;DHT22;3792;47.740;7.606;2023-11-19T10:40:40;14.00;99.90
7502;DHT22;3792;47.740;7.606;2023-11-19T10:43:09;14.00;99.90
7502;DHT22;3792;47.740;7.606;2023-11-19T10:45:38;14.10;99.90
7502;DHT22;3792;47.740;7.606;2023-11-19T10:48:05;14.20;99.90
7502;DHT22;3792;47.740;7.606;2023-11-19T10:50:33;14.20;99.90
7502;DHT22;3792;47.740;7.606;2023-11-19T10:53:02;14.20;99.90
7502;DHT22;3792;47.740;7.606;2023-11-19T10:55:32;14.30;99.90
7502;DHT22;3792;47.740;7.606;2023-11-19T10:58:01;14.50;99.90
7502;DHT22;3792;47.740;7.606;2023-11-19T11:00:37;14.40;99.90
7502;DHT22;3792;47.740;7.606;2023-11-19T11:03:10;14.30;99.90
7502;DHT22;3792;47.740;7.606;2023-11-19T11:05:38;14.10;99.90
7502;DHT22;3792;47.740;7.606;2023-11-19T11:08:06;14.00;99.90
7502;DHT22;3792;47.740;7.606;2023-11-19T11:10:43;13.90;99.90
7502;DHT22;3792;47.740;7.606;2023-11-19T11:13:11;13.80;99.90
7502;DHT22;3792;47.740;7.606;2023-11-19T11:15:41;13.80;99.90
7502;DHT22;3792;47.740;7.606;2023-11-19T11:18:09;13.70;99.90
7502;DHT22;3792;47.740;7.606;2023-11-19T11:20:38;13.70;99.90
7502;DHT22;3792;47.740;7.606;2023-11-19T11:23:20;13.70;99.90
7502;DHT22;3792;47.740;7.606;2023-11-19T11:26:00;13.70;99.90
7502;DHT22;3792;47.740;7.606;2023-11-19T11:28:39;13.60;99.90
7502;DHT22;3792;47.740;7.606;2023-11-19T11:31:20;13.70;99.90
7502;DHT22;3792;47.740;7.606;2023-11-19T11:34:14;13.70;99.90
7502;DHT22;3792;47.740;7.606;2023-11-19T11:36:53;13.70;99.90
7502;DHT22;3792;47.740;7.606;2023-11-19T11:39:21;13.70;99.90
7502;DHT22;3792;47.740;7.606;2023-11-19T11:42:34;13.70;99.90
7502;DHT22;3792;47.740;7.606;2023-11-19T11:45:02;13.70;99.90
7502;DHT22;3792;47.740;7.606;2023-11-19T11:48:12;13.70;99.90
7502;DHT22;3792;47.740;7.606;2023-11-19T11:50:53;13.70;99.90
7502;DHT22;3792;47.740;7.606;2023-11-19T11:53:22;13.70;99.90
7502;DHT22;3792;47.740;7.606;2023-11-19T11:55:59;13.70;99.90
7502;DHT22;3792;47.740;7.606;2023-11-19T11:58:35;13.80;99.90
7502;DHT22;3792;47.740;7.606;2023-11-19T12:01:04;13.80;99.90
7502;DHT22;3792;47.740;7.606;2023-11-19T12:03:33;13.80;99.90
7502;DHT22;3792;47.740;7.606;2023-11-19T12:06:00;13.90;99.90
7502;DHT22;3792;47.740;7.606;2023-11-19T12:08:29;13.90;99.90
7502;DHT22;3792;47.740;7.606;2023-11-19T12:11:00;13.90;99.90
7502;DHT22;3792;47.740;7.606;2023-11-19T12:13:47;13.90;99.90
7502;DHT22;3792;47.740;7.606;2023-11-19T12:16:15;13.90;99.90
7502;DHT22;3792;47.740;7.606;2023-11-19T12:18:45;13.80;99.90
7502;DHT22;3792;47.740;7.606;2023-11-19T12:21:27;13.80;99.90
7502;DHT22;3792;47.740;7.606;2023-11-19T12:23:55;13.80;99.90
7502;DHT22;3792;47.740;7.606;2023-11-19T12:26:37;13.80;99.90
7502;DHT22;3792;47.740;7.606;2023-11-19T12:29:05;13.80;99.90
7502;DHT22;3792;47.740;7.606;2023-11-19T12:31:34;13.90;99.90
7502;DHT22;3792;47.740;7.606;2023-11-19T12:34:07;13.80;99.90
7502;DHT22;3792;47.740;7.606;2023-11-19T12:36:41;13.90;99.90
7502;DHT22;3792;47.740;7.606;2023-11-19T12:39:10;13.80;99.90
7502;DHT22;3792;47.740;7.606;2023-11-19T12:41:52;13.90;99.90
7502;DHT22;3792;47.740;7.606;2023-11-19T12:44:20;13.90;99.90
7502;DHT22;3792;47.740;7.606;2023-11-19T12:46:59;13.90;99.90
7502;DHT22;3792;47.740;7.606;2023-11-19T12:49:28;13.90;99.90
7502;DHT22;3792;47.740;7.606;2023-11-19T12:51:55;14.00;99.90
7502;DHT22;3792;47.740;7.606;2023-11-19T12:54:32;14.00;99.90
7502;DHT22;3792;47.740;7.606;2023-11-19T12:57:01;14.00;99.90
7502;DHT22;3792;47.740;7.606;2023-11-19T12:59:29;14.00;99.90
7502;DHT22;3792;47.740;7.606;2023-11-19T13:01:56;14.00;99.90
7502;DHT22;3792;47.740;7.606;2023-11-19T13:04:22;14.00;99.90
7502;DHT22;3792;47.740;7.606;2023-11-19T13:06:54;14.00;99.90
7502;DHT22;3792;47.740;7.606;2023-11-19T13:09:23;14.00;99.90
7502;DHT22;3792;47.740;7.606;2023-11-19T13:11:51;13.90;99.90
7502;DHT22;3792;47.740;7.606;2023-11-19T13:14:19;13.90;99.90
7502;DHT22;3792;47.740;7.606;2023-11-19T13:16:46;14.00;99.90
7502;DHT22;3792;47.740;7.606;2023-11-19T13:19:14;14.00;99.90
7502;DHT22;3792;47.740;7.606;2023-11-19T13:21:42;14.00;99.90
7502;DHT22;3792;47.740;7.606;2023-11-19T13:24:13;14.00;99.90
7502;DHT22;3792;47.740;7.606;2023-11-19T13:26:40;14.00;99.90
7502;DHT22;3792;47.740;7.606;2023-11-19T13:29:07;14.00;99.90
7502;DHT22;3792;47.740;7.606;2023-11-19T13:31:36;14.00;99.90
7502;DHT22;3792;47.740;7.606;2023-11-19T13:34:04;14.00;99.90
7502;DHT22;3792;47.740;7.606;2023-11-19T13:36:33;14.00;99.90
7502;DHT22;3792;47.740;7.606;2023-11-19T13:39:00;14.00;99.90
7502;DHT22;3792;47.740;7.606;2023-11-19T13:41:28;14.00;99.90
7502;DHT22;3792;47.740;7.606;2023-11-19T13:43:58;14.10;99.90
7502;DHT22;3792;47.740;7.606;2023-11-19T13:46:25;14.10;99.90
7502;DHT22;3792;47.740;7.606;2023-11-19T13:48:53;14.10;99.90
7502;DHT22;3792;47.740;7.606;2023-11-19T13:51:23;14.10;99.90
7502;DHT22;3792;47.740;7.606;2023-11-19T13:53:50;14.30;99.90
7502;DHT22;3792;47.740;7.606;2023-11-19T13:56:17;14.60;99.90
7502;DHT22;3792;47.740;7.606;2023-11-19T13:58:48;14.70;99.90
7502;DHT22;3792;47.740;7.606;2023-11-19T14:01:16;14.80;99.90
7502;DHT22;3792;47.740;7.606;2023-11-19T14:03:43;14.80;99.90
7502;DHT22;3792;47.740;7.606;2023-11-19T14:06:11;14.80;99.90
7502;DHT22;3792;47.740;7.606;2023-11-19T14:08:38;14.70;99.90
7502;DHT22;3792;47.740;7.606;2023-11-19T14:11:05;14.90;99.90
7502;DHT22;3792;47.740;7.606;2023-11-19T14:13:32;15.20;99.90
7502;DHT22;3792;47.740;7.606;2023-11-19T14:16:01;15.60;99.90
7502;DHT22;3792;47.740;7.606;2023-11-19T14:18:29;15.80;99.90
7502;DHT22;3792;47.740;7.606;2023-11-19T14:20:56;15.90;99.90
7502;DHT22;3792;47.740;7.606;2023-11-19T14:23:24;16.00;99.90
7502;DHT22;3792;47.740;7.606;2023-11-19T14:25:52;16.20;99.90
7502;DHT22;3792;47.740;7.606;2023-11-19T14:28:20;16.00;99.90
7502;DHT22;3792;47.740;7.606;2023-11-19T14:30:47;15.70;99.90
7502;DHT22;3792;47.740;7.606;2023-11-19T14:33:20;15.80;99.90
7502;DHT22;3792;47.740;7.606;2023-11-19T14:35:47;15.90;99.90
7502;DHT22;3792;47.740;7.606;2023-11-19T14:38:14;15.90;99.90
7502;DHT22;3792;47.740;7.606;2023-11-19T14:40:41;15.80;99.90
7502;DHT22;3792;47.740;7.606;2023-11-19T14:43:09;15.50;99.90
7502;DHT22;3792;47.740;7.606;2023-11-19T14:45:36;15.30;99.90
7502;DHT22;3792;47.740;7.606;2023-11-19T14:48:03;15.00;99.90
7502;DHT22;3792;47.740;7.606;2023-11-19T14:50:33;14.90;99.90
7502;DHT22;3792;47.740;7.606;2023-11-19T14:53:00;14.70;99.90
7502;DHT22;3792;47.740;7.606;2023-11-19T14:55:27;14.60;99.90
7502;DHT22;3792;47.740;7.606;2023-11-19T14:57:54;14.60;99.90
7502;DHT22;3792;47.740;7.606;2023-11-19T15:00:22;14.50;99.90
7502;DHT22;3792;47.740;7.606;2023-11-19T15:02:48;14.40;99.90
7502;DHT22;3792;47.740;7.606;2023-11-19T15:05:15;14.30;99.90
7502;DHT22;3792;47.740;7.606;2023-11-19T15:07:44;14.30;99.90
7502;DHT22;3792;47.740;7.606;2023-11-19T15:10:11;14.20;99.90
7502;DHT22;3792;47.740;7.606;2023-11-19T15:12:38;14.20;99.90
7502;DHT22;3792;47.740;7.606;2023-11-19T15:15:08;14.20;99.90
7502;DHT22;3792;47.740;7.606;2023-11-19T15:17:39;14.20;99.90
7502;DHT22;3792;47.740;7.606;2023-11-19T15:20:07;14.10;99.90
7502;DHT22;3792;47.740;7.606;2023-11-19T15:22:34;14.10;99.90
7502;DHT22;3792;47.740;7.606;2023-11-19T15:25:03;14.10;99.90
7502;DHT22;3792;47.740;7.606;2023-11-19T15:27:33;14.00;99.90
7502;DHT22;3792;47.740;7.606;2023-11-19T15:30:01;14.10;99.90
7502;DHT22;3792;47.740;7.606;2023-11-19T15:32:28;14.10;99.90
7502;DHT22;3792;47.740;7.606;2023-11-19T15:34:57;14.00;99.90
7502;DHT22;3792;47.740;7.606;2023-11-19T15:37:24;14.00;99.90
7502;DHT22;3792;47.740;7.606;2023-11-19T15:39:51;14.00;99.90
7502;DHT22;3792;47.740;7.606;2023-11-19T15:42:20;13.90;99.90
7502;DHT22;3792;47.740;7.606;2023-11-19T15:44:47;13.90;99.90
7502;DHT22;3792;47.740;7.606;2023-11-19T15:47:15;13.80;99.90
7502;DHT22;3792;47.740;7.606;2023-11-19T15:49:44;13.80;99.90
7502;DHT22;3792;47.740;7.606;2023-11-19T15:52:11;13.80;99.90
7502;DHT22;3792;47.740;7.606;2023-11-19T15:54:40;13.80;99.90
7502;DHT22;3792;47.740;7.606;2023-11-19T15:57:07;13.70;99.90
7502;DHT22;3792;47.740;7.606;2023-11-19T15:59:36;13.80;99.90
7502;DHT22;3792;47.740;7.606;2023-11-19T16:02:03;13.80;99.90
7502;DHT22;3792;47.740;7.606;2023-11-19T16:04:31;13.80;99.90
7502;DHT22;3792;47.740;7.606;2023-11-19T16:06:58;13.70;99.90
7502;DHT22;3792;47.740;7.606;2023-11-19T16:09:25;13.70;99.90
7502;DHT22;3792;47.740;7.606;2023-11-19T16:11:54;13.70;99.90